Terminal Aerodrome Forecast
Issued by NWS Jacksonville, FL

Home | Current Version | Previous Version | Text Only | Print | Product List | Glossary On
Versions: 1 2 3 4 5 6 7 8 9 10 11 12 13 14 15 16 17 18 19 20 21 22 23 24 25 26 27 28
000
FTUS42 KJAX 160541
TAFSSI
TAF
KSSI 160541Z 1606/1706 17003KT P6SM SCT015
     FM161400 12006KT P6SM SCT020 SCT090
     FM161700 11009KT P6SM VCTS SCT035CB SCT120 BKN200
     FM162300 14009KT P6SM FEW030 SCT150 BKN250=

USA.gov is the U.S. government's official web portal to all federal, state and local government web resources and services.